KBMT/BMT METAR and TAF weather

Enter ICAO airport designator
Station Type Date Time Source
KBMT METAR 2019/08/25 13:55 UTC NOAA

KBMT 251355Z AUTO 00000KT 10SM SCT100 27/24 A2989 RMK AO2 LTG DSNT N AND SE T02690244


Station Type Date Time Source
KBMT Decoded METAR 2019/08/25 13:55 UTC NOAA

Station name not available
Aug 25, 2019 - 09:55 AM EDT / 2019.08.25 1355 UTC
Wind: Calm:0
Visibility: 10 mile(s):0
Sky conditions: partly cloudy
Weather: Lightning observed
Temperature: 80.4 F (26.9 C)
Dew Point: 75.9 F (24.4 C)
Relative Humidity: 86%
Pressure (altimeter): 29.89 in. Hg (1012 hPa)
ob: KBMT 251355Z AUTO 00000KT 10SM SCT100 27/24 A2989 RMK AO2 LTG DSNT N AND SE T02690244
cycle: 14

Station Type Date Time Source
KBMT TAF UTC NOAA

Error!

Example: see airport list